Time;durP1;ratioP1;P1;durP2;ratioP2;P2;SDS_P1;SDS_P2;PMS_P1;PMS_P2;Temp;Humidity;BMP_temperature;BMP_pressure;BME280_temperature;BME280_humidity;BME280_pressure;Samples;Min_cycle;Max_cycle;Signal;HPM_P1;HPM_P2
2022/08/09 00:01:55;;;;;;;;;;;;;;;17.19;31.77;96367.53;5007497;28;20377;-66
2022/08/09 00:04:20;;;;;;;;;;;;;;;17.21;31.60;96369.03;5006807;28;20183;-66
2022/08/09 00:06:45;;;;;;;;;;;;;;;16.98;32.10;96362.06;5008843;28;20070;-66
2022/08/09 00:09:11;;;;;;;;;;;;;;;17.12;31.93;96364.84;5013083;28;20079;-66
2022/08/09 00:11:36;;;;;;;;;;;;;;;17.20;31.74;96358.47;5010791;28;19989;-66
2022/08/09 00:14:02;;;;;;;;;;;;;;;17.14;31.79;96355.53;5009609;28;19994;-66
2022/08/09 00:16:27;;;;;;;;;;;;;;;17.21;31.84;96352.88;5009829;28;19974;-66
2022/08/09 00:18:52;;;;;;;;;;;;;;;17.13;32.20;96364.63;5008300;28;20104;-66
2022/08/09 00:21:18;;;;;;;;;;;;;;;17.12;32.03;96359.44;5017163;28;20000;-66
2022/08/09 00:23:43;;;;;;;;;;;;;;;17.21;32.01;96355.56;5009038;28;19981;-66
2022/08/09 00:26:09;;;;;;;;;;;;;;;17.23;31.78;96358.88;5007784;28;19994;-66
2022/08/09 00:28:34;;;;;;;;;;;;;;;17.07;32.39;96349.28;5007587;28;19974;-66
2022/08/09 00:30:59;;;;;;;;;;;;;;;17.06;32.41;96352.19;5014737;28;20477;-66
2022/08/09 00:33:25;;;;;;;;;;;;;;;16.84;32.71;96353.13;5005183;28;19981;-66
2022/08/09 00:35:51;;;;;;;;;;;;;;;17.01;32.32;96356.31;5007319;28;20072;-66
2022/08/09 00:38:16;;;;;;;;;;;;;;;17.00;32.67;96359.19;5003257;28;19994;-66
2022/08/09 00:40:41;;;;;;;;;;;;;;;17.10;32.23;96364.19;5004306;28;19992;-66
2022/08/09 00:43:07;;;;;;;;;;;;;;;17.16;32.35;96363.41;5006518;28;20203;-66
2022/08/09 00:45:32;;;;;;;;;;;;;;;17.03;32.47;96362.28;5007099;28;20035;-66
2022/08/09 00:47:57;;;;;;;;;;;;;;;17.03;32.50;96356.91;5008529;28;20013;-67
2022/08/09 00:50:23;;;;;;;;;;;;;;;16.93;32.63;96356.44;5004597;28;19999;-61
2022/08/09 00:52:48;;;;;;;;;;;;;;;16.99;32.76;96357.50;5009784;28;19985;-66
2022/08/09 00:55:13;;;;;;;;;;;;;;;16.82;32.92;96357.88;5009480;28;20002;-61
2022/08/09 00:57:38;;;;;;;;;;;;;;;16.63;33.58;96362.13;5007879;28;20036;-66
2022/08/09 01:00:09;;;;;;;;;;;;;;;16.83;33.00;96356.81;5009222;28;20188;-66
2022/08/09 01:02:37;;;;;;;;;;;;;;;16.99;32.59;96352.13;5006396;28;19994;-66
2022/08/09 01:05:04;;;;;;;;;;;;;;;16.89;32.74;96357.88;5019605;28;19980;-66
2022/08/09 01:07:45;;;;;;;;;;;;;;;16.80;32.94;96354.56;4994443;28;19998;-66
2022/08/09 01:10:13;;;;;;;;;;;;;;;16.93;32.75;96355.63;5013732;28;20013;-66
2022/08/09 01:12:47;;;;;;;;;;;;;;;16.96;32.78;96357.94;5011588;28;20354;-66
2022/08/09 01:15:13;;;;;;;;;;;;;;;16.94;32.68;96360.81;5006569;28;20109;-66
2022/08/09 01:17:46;;;;;;;;;;;;;;;16.93;32.63;96361.81;4994098;28;20528;-66
2022/08/09 01:20:23;;;;;;;;;;;;;;;17.15;32.19;96362.59;4996315;28;19990;-66
2022/08/09 01:23:11;;;;;;;;;;;;;;;16.97;32.44;96364.97;4990028;28;19996;-66
2022/08/09 01:25:55;;;;;;;;;;;;;;;17.07;32.25;96362.75;5000203;28;19993;-66
2022/08/09 01:28:20;;;;;;;;;;;;;;;16.99;32.43;96366.41;5009824;28;20009;-66
2022/08/09 01:30:45;;;;;;;;;;;;;;;16.96;32.53;96366.00;4989427;28;20734;-66
2022/08/09 01:33:11;;;;;;;;;;;;;;;16.80;33.05;96376.06;4989823;28;19977;-66
2022/08/09 01:35:46;;;;;;;;;;;;;;;16.79;32.84;96369.00;5002514;28;19989;-66
2022/08/09 01:38:12;;;;;;;;;;;;;;;16.64;33.24;96374.53;4988641;28;20000;-66
2022/08/09 01:40:42;;;;;;;;;;;;;;;16.54;33.31;96369.50;5014568;28;20013;-66
2022/08/09 01:43:08;;;;;;;;;;;;;;;16.58;33.32;96369.94;5007951;28;20455;-66
2022/08/09 01:45:33;;;;;;;;;;;;;;;16.51;33.67;96370.75;4989618;28;19993;-66
2022/08/09 01:47:58;;;;;;;;;;;;;;;16.44;33.75;96375.25;4991556;28;20637;-66
2022/08/09 01:50:23;;;;;;;;;;;;;;;16.26;34.65;96376.53;4991369;28;20509;-66
2022/08/09 01:52:49;;;;;;;;;;;;;;;16.30;34.38;96382.34;5008042;28;20369;-66
2022/08/09 01:55:14;;;;;;;;;;;;;;;16.29;34.05;96366.44;5009569;28;19990;-66
2022/08/09 01:57:40;;;;;;;;;;;;;;;16.21;34.26;96368.25;5003689;28;20024;-66
2022/08/09 02:00:06;;;;;;;;;;;;;;;16.26;34.18;96363.09;5004594;28;20314;-66
2022/08/09 02:02:31;;;;;;;;;;;;;;;16.25;34.08;96366.81;4989356;28;20482;-66
2022/08/09 02:04:57;;;;;;;;;;;;;;;16.15;34.52;96360.97;4993568;28;20255;-66
2022/08/09 02:07:23;;;;;;;;;;;;;;;16.11;34.29;96354.31;4996105;28;20041;-66
2022/08/09 02:09:49;;;;;;;;;;;;;;;16.22;33.95;96367.19;5007763;28;19994;-66
2022/08/09 02:12:16;;;;;;;;;;;;;;;16.32;33.65;96360.66;4987786;28;19970;-66
2022/08/09 02:14:41;;;;;;;;;;;;;;;16.33;33.61;96363.16;4988266;28;20001;-66
2022/08/09 02:17:07;;;;;;;;;;;;;;;16.22;34.07;96358.34;4986926;28;19977;-66
2022/08/09 02:19:33;;;;;;;;;;;;;;;16.17;33.99;96369.66;4986606;28;20000;-66
2022/08/09 02:21:58;;;;;;;;;;;;;;;16.35;33.37;96369.19;4993022;28;19997;-66
2022/08/09 02:24:25;;;;;;;;;;;;;;;16.24;33.73;96361.63;4991164;28;19977;-66
2022/08/09 02:26:50;;;;;;;;;;;;;;;16.10;34.18;96363.41;4988293;28;20393;-66
2022/08/09 02:29:23;;;;;;;;;;;;;;;15.98;34.46;96361.25;4994577;28;19966;-66
2022/08/09 02:31:48;;;;;;;;;;;;;;;15.92;34.80;96363.88;4992868;28;19962;-66
2022/08/09 02:34:15;;;;;;;;;;;;;;;15.59;35.59;96366.09;4988036;28;19994;-66
2022/08/09 02:36:41;;;;;;;;;;;;;;;15.53;35.66;96368.69;4986503;28;19974;-66
2022/08/09 02:39:07;;;;;;;;;;;;;;;15.46;36.22;96364.06;4986545;28;19989;-66
2022/08/09 02:41:37;;;;;;;;;;;;;;;15.42;36.04;96370.00;5013219;28;20169;-66
2022/08/09 02:44:03;;;;;;;;;;;;;;;15.17;36.23;96371.22;4986097;28;20005;-67
2022/08/09 02:46:28;;;;;;;;;;;;;;;15.11;36.84;96369.28;5009664;28;19997;-66
2022/08/09 02:48:55;;;;;;;;;;;;;;;15.23;36.52;96365.06;4998933;28;19969;-66
2022/08/09 02:51:20;;;;;;;;;;;;;;;15.14;36.61;96368.91;4990076;28;20009;-66
2022/08/09 02:53:47;;;;;;;;;;;;;;;15.19;36.31;96371.84;4988173;28;20458;-66
2022/08/09 02:56:12;;;;;;;;;;;;;;;15.22;36.36;96363.41;4997915;28;20020;-66
2022/08/09 02:58:37;;;;;;;;;;;;;;;15.33;36.11;96369.31;4987221;28;20028;-66
2022/08/09 03:01:04;;;;;;;;;;;;;;;15.27;36.27;96364.69;5007470;28;19970;-67
2022/08/09 03:03:29;;;;;;;;;;;;;;;14.96;36.86;96364.75;5006662;28;20350;-66
2022/08/09 03:05:55;;;;;;;;;;;;;;;15.32;36.22;96373.84;5007049;28;20505;-66
2022/08/09 03:08:21;;;;;;;;;;;;;;;15.40;35.94;96370.19;4990306;28;19993;-66
2022/08/09 03:10:46;;;;;;;;;;;;;;;15.52;35.65;96369.69;4993738;28;20476;-66
2022/08/09 03:13:12;;;;;;;;;;;;;;;15.36;36.13;96369.75;5022827;28;19966;-66
2022/08/09 03:15:38;;;;;;;;;;;;;;;15.55;35.88;96362.09;5000335;28;19989;-66
2022/08/09 03:18:03;;;;;;;;;;;;;;;15.54;35.70;96363.09;5012336;28;20324;-66
2022/08/09 03:20:29;;;;;;;;;;;;;;;15.41;36.13;96371.88;4991932;28;20501;-66
2022/08/09 03:22:54;;;;;;;;;;;;;;;15.51;35.88;96368.03;4989357;28;20461;-66
2022/08/09 03:25:19;;;;;;;;;;;;;;;15.55;35.69;96361.25;5017870;28;20008;-66
2022/08/09 03:27:46;;;;;;;;;;;;;;;15.46;36.12;96368.59;5006897;28;19966;-66
2022/08/09 03:30:12;;;;;;;;;;;;;;;15.40;36.14;96372.06;5009654;28;20001;-66
2022/08/09 03:32:37;;;;;;;;;;;;;;;15.37;36.30;96367.91;5012374;28;20505;-66
2022/08/09 03:35:03;;;;;;;;;;;;;;;15.44;36.39;96366.09;4999298;28;19998;-66
2022/08/09 03:37:28;;;;;;;;;;;;;;;15.41;36.19;96373.72;5009059;28;19977;-66
2022/08/09 03:39:53;;;;;;;;;;;;;;;15.46;35.92;96371.28;4989927;28;20227;-66
2022/08/09 03:42:18;;;;;;;;;;;;;;;15.26;36.57;96376.47;5008437;28;19998;-66
2022/08/09 03:44:44;;;;;;;;;;;;;;;15.11;36.98;96374.63;5010106;28;20481;-66
2022/08/09 03:47:09;;;;;;;;;;;;;;;14.94;37.24;96372.19;5007137;28;20063;-67
2022/08/09 03:49:34;;;;;;;;;;;;;;;15.10;36.88;96373.78;5006694;28;20460;-67
2022/08/09 03:52:00;;;;;;;;;;;;;;;15.08;36.84;96372.31;4991033;28;19966;-66
2022/08/09 03:54:29;;;;;;;;;;;;;;;15.11;36.82;96380.00;4997785;28;19990;-66
2022/08/09 03:56:55;;;;;;;;;;;;;;;14.92;37.33;96381.44;5009322;28;20481;-66
2022/08/09 03:59:20;;;;;;;;;;;;;;;14.74;37.83;96379.97;5006261;28;19989;-67
2022/08/09 04:01:45;;;;;;;;;;;;;;;14.60;38.14;96384.28;5015034;28;20064;-67
2022/08/09 04:04:11;;;;;;;;;;;;;;;14.54;38.19;96387.69;5006707;28;19969;-66
2022/08/09 04:06:37;;;;;;;;;;;;;;;14.38;38.60;96376.13;5012401;28;20450;-66
2022/08/09 04:09:05;;;;;;;;;;;;;;;14.36;38.67;96380.84;5016694;28;20486;-66
2022/08/09 04:11:36;;;;;;;;;;;;;;;14.28;38.94;96378.25;5009536;28;19994;-66
2022/08/09 04:14:01;;;;;;;;;;;;;;;14.35;38.77;96384.56;4997131;28;20444;-66
2022/08/09 04:16:26;;;;;;;;;;;;;;;14.21;39.08;96388.84;5012233;28;20027;-66
2022/08/09 04:18:51;;;;;;;;;;;;;;;14.05;39.22;96392.53;5015428;28;19997;-66
2022/08/09 04:21:17;;;;;;;;;;;;;;;14.06;39.31;96399.53;5011123;28;20451;-67
2022/08/09 04:23:42;;;;;;;;;;;;;;;14.40;38.48;96397.38;5007849;28;19980;-66
2022/08/09 04:26:07;;;;;;;;;;;;;;;14.69;37.85;96401.91;5004672;28;20310;-67
2022/08/09 04:28:33;;;;;;;;;;;;;;;14.60;38.20;96403.03;5005564;28;19999;-66
2022/08/09 04:30:58;;;;;;;;;;;;;;;14.85;37.59;96400.09;5009551;28;20550;-61
2022/08/09 04:33:23;;;;;;;;;;;;;;;14.78;38.06;96402.69;5015176;28;20466;-62
2022/08/09 04:35:48;;;;;;;;;;;;;;;14.68;38.12;96402.09;5007121;28;19973;-66
2022/08/09 04:38:14;;;;;;;;;;;;;;;14.95;37.37;96405.16;5007685;28;20338;-66
2022/08/09 04:40:48;;;;;;;;;;;;;;;15.00;37.56;96401.94;5009932;28;20497;-66
2022/08/09 04:43:16;;;;;;;;;;;;;;;15.13;37.29;96401.25;5008258;28;20012;-66
2022/08/09 04:45:42;;;;;;;;;;;;;;;15.37;36.94;96410.84;5009768;28;19994;-66
2022/08/09 04:48:07;;;;;;;;;;;;;;;15.53;36.49;96407.06;5012528;28;19974;-66
2022/08/09 04:50:32;;;;;;;;;;;;;;;15.75;35.93;96405.25;5004575;28;20525;-66
2022/08/09 04:52:58;;;;;;;;;;;;;;;15.60;36.42;96412.53;5006383;28;19969;-66
2022/08/09 04:55:23;;;;;;;;;;;;;;;15.85;35.79;96412.16;5008994;28;19997;-66
2022/08/09 04:57:48;;;;;;;;;;;;;;;15.91;35.74;96411.38;5016577;28;19994;-67
2022/08/09 05:00:13;;;;;;;;;;;;;;;15.98;35.70;96416.81;5009768;28;19972;-66
2022/08/09 05:02:40;;;;;;;;;;;;;;;16.00;35.43;96417.44;5009641;28;20173;-67
2022/08/09 05:05:05;;;;;;;;;;;;;;;15.96;35.74;96427.75;5007786;28;20385;-66
2022/08/09 05:07:31;;;;;;;;;;;;;;;16.09;35.32;96426.22;5008232;28;19989;-67
2022/08/09 05:09:56;;;;;;;;;;;;;;;16.13;35.36;96428.31;5003665;28;20092;-67
2022/08/09 05:12:21;;;;;;;;;;;;;;;16.16;35.31;96432.47;5005029;28;19981;-67
2022/08/09 05:14:47;;;;;;;;;;;;;;;16.03;35.69;96437.72;5006979;28;20044;-67
2022/08/09 05:17:12;;;;;;;;;;;;;;;16.06;35.73;96431.97;5005426;28;20017;-67
2022/08/09 05:19:37;;;;;;;;;;;;;;;16.16;35.58;96432.47;5006150;28;19992;-67
2022/08/09 05:22:03;;;;;;;;;;;;;;;16.40;34.79;96430.41;5006320;28;19998;-66
2022/08/09 05:24:28;;;;;;;;;;;;;;;16.48;34.85;96432.94;5005972;28;19977;-66
2022/08/09 05:26:54;;;;;;;;;;;;;;;16.68;34.38;96434.94;5006470;28;19993;-66
2022/08/09 05:29:19;;;;;;;;;;;;;;;16.35;35.12;96439.03;5006412;28;19980;-66
2022/08/09 05:31:45;;;;;;;;;;;;;;;16.59;34.76;96439.63;5005062;28;20409;-67
2022/08/09 05:34:10;;;;;;;;;;;;;;;16.75;34.39;96438.50;5007563;28;20465;-66
2022/08/09 05:36:35;;;;;;;;;;;;;;;16.73;34.41;96437.84;5012376;28;20417;-66
2022/08/09 05:39:01;;;;;;;;;;;;;;;16.68;34.40;96440.31;5005991;28;19993;-66
2022/08/09 05:41:26;;;;;;;;;;;;;;;16.73;34.29;96445.91;5012787;28;19968;-66
2022/08/09 05:43:51;;;;;;;;;;;;;;;17.00;33.86;96453.31;5014591;28;20385;-66
2022/08/09 05:46:17;;;;;;;;;;;;;;;17.08;33.89;96450.47;5009948;28;20522;-66
2022/08/09 05:48:42;;;;;;;;;;;;;;;17.24;33.64;96446.63;5006644;28;19978;-66
2022/08/09 05:51:07;;;;;;;;;;;;;;;17.51;32.63;96454.78;5008632;28;20040;-66
2022/08/09 05:53:32;;;;;;;;;;;;;;;17.56;32.88;96447.97;5012306;28;20255;-67
2022/08/09 05:55:58;;;;;;;;;;;;;;;17.71;32.85;96445.94;5007007;28;20084;-66
2022/08/09 05:58:23;;;;;;;;;;;;;;;17.59;33.04;96447.56;5011856;28;20497;-66
2022/08/09 06:00:48;;;;;;;;;;;;;;;18.08;32.17;96447.50;5008337;28;19974;-66
2022/08/09 06:03:14;;;;;;;;;;;;;;;18.09;31.90;96443.75;5011145;28;20471;-66
2022/08/09 06:05:39;;;;;;;;;;;;;;;18.09;32.13;96452.69;5010795;28;20638;-66
2022/08/09 06:08:04;;;;;;;;;;;;;;;18.26;31.51;96461.16;5013398;28;19965;-66
2022/08/09 06:10:38;;;;;;;;;;;;;;;18.21;31.42;96458.25;5007571;28;20001;-66
2022/08/09 06:13:07;;;;;;;;;;;;;;;18.54;31.36;96460.13;5007711;28;19969;-66
2022/08/09 06:15:32;;;;;;;;;;;;;;;18.72;30.81;96460.53;5017694;28;19997;-66
2022/08/09 06:17:57;;;;;;;;;;;;;;;18.54;31.20;96459.31;4996396;28;19989;-66
2022/08/09 06:20:23;;;;;;;;;;;;;;;18.74;30.67;96462.00;5013933;28;20349;-66
2022/08/09 06:22:48;;;;;;;;;;;;;;;18.77;30.64;96466.16;5012412;28;20115;-66
2022/08/09 06:25:14;;;;;;;;;;;;;;;18.88;30.42;96467.38;5013610;28;20091;-66
2022/08/09 06:27:40;;;;;;;;;;;;;;;19.13;30.12;96466.66;5007735;28;19982;-66
2022/08/09 06:30:05;;;;;;;;;;;;;;;19.17;30.48;96466.03;5009011;28;20012;-66
2022/08/09 06:32:31;;;;;;;;;;;;;;;19.33;30.02;96464.78;5011269;28;20004;-66
2022/08/09 06:34:56;;;;;;;;;;;;;;;19.25;30.11;96473.09;5013777;28;19974;-66
2022/08/09 06:37:21;;;;;;;;;;;;;;;19.28;29.95;96471.88;5010889;28;20484;-66
2022/08/09 06:39:46;;;;;;;;;;;;;;;19.23;29.90;96483.25;5009911;28;20063;-66
2022/08/09 06:42:12;;;;;;;;;;;;;;;19.61;29.28;96476.28;5011759;28;20000;-66
2022/08/09 06:44:37;;;;;;;;;;;;;;;19.74;29.22;96474.56;5011098;28;20102;-66
2022/08/09 06:47:02;;;;;;;;;;;;;;;19.66;29.21;96478.34;5012148;28;20079;-66
2022/08/09 06:49:27;;;;;;;;;;;;;;;19.90;29.04;96479.47;5014552;28;20276;-66
2022/08/09 06:51:53;;;;;;;;;;;;;;;19.99;28.93;96473.81;5012278;28;19972;-66
2022/08/09 06:54:18;;;;;;;;;;;;;;;20.17;28.69;96478.47;5012258;28;20487;-66
2022/08/09 06:56:44;;;;;;;;;;;;;;;20.34;27.99;96479.59;5013480;28;20431;-66
2022/08/09 06:59:10;;;;;;;;;;;;;;;20.40;27.97;96493.28;5010319;28;20603;-66
2022/08/09 07:01:35;;;;;;;;;;;;;;;20.63;27.95;96489.19;4991509;28;20790;-66
2022/08/09 07:04:00;;;;;;;;;;;;;;;20.58;28.23;96495.22;5008830;28;20102;-66
2022/08/09 07:06:25;;;;;;;;;;;;;;;20.73;27.67;96493.03;4993839;28;20353;-66
2022/08/09 07:08:51;;;;;;;;;;;;;;;20.56;27.99;96490.00;5009007;28;19972;-66
2022/08/09 07:11:16;;;;;;;;;;;;;;;20.87;27.80;96488.31;5015622;28;20121;-66
2022/08/09 07:13:41;;;;;;;;;;;;;;;21.07;27.80;96495.41;5009212;28;19994;-66
2022/08/09 07:16:06;;;;;;;;;;;;;;;21.32;26.68;96497.25;5018475;28;19975;-66
2022/08/09 07:18:32;;;;;;;;;;;;;;;21.37;26.89;96493.84;5007936;28;19983;-66
2022/08/09 07:20:57;;;;;;;;;;;;;;;21.59;26.52;96493.38;5017357;28;19983;-66
2022/08/09 07:23:22;;;;;;;;;;;;;;;21.70;26.28;96502.63;5013006;28;20388;-66
2022/08/09 07:25:47;;;;;;;;;;;;;;;21.81;26.18;96499.13;5006710;28;20493;-66
2022/08/09 07:28:13;;;;;;;;;;;;;;;21.90;26.27;96496.94;5011808;28;19989;-66
2022/08/09 07:30:38;;;;;;;;;;;;;;;21.99;26.02;96503.69;5008895;28;20496;-66
2022/08/09 07:33:03;;;;;;;;;;;;;;;22.24;25.85;96496.47;5017015;28;19965;-66
2022/08/09 07:35:28;;;;;;;;;;;;;;;22.00;26.24;96497.22;5014616;28;20120;-66
2022/08/09 07:37:54;;;;;;;;;;;;;;;22.05;26.53;96499.25;5009126;28;19987;-66
2022/08/09 07:40:19;;;;;;;;;;;;;;;22.19;25.93;96493.66;5012915;28;20075;-66
2022/08/09 07:42:51;;;;;;;;;;;;;;;22.31;25.85;96497.19;5011062;28;20370;-66
2022/08/09 07:45:20;;;;;;;;;;;;;;;22.53;25.11;96491.22;5006296;28;20374;-66
2022/08/09 07:47:45;;;;;;;;;;;;;;;22.62;25.76;96489.84;5012698;28;20016;-65
2022/08/09 07:50:10;;;;;;;;;;;;;;;22.80;25.09;96490.78;5009854;28;20114;-66
2022/08/09 07:52:37;;;;;;;;;;;;;;;23.22;25.10;96489.00;5015785;28;19971;-66
2022/08/09 07:55:03;;;;;;;;;;;;;;;23.12;25.05;96486.88;5015622;28;20089;-66
2022/08/09 07:57:28;;;;;;;;;;;;;;;23.45;24.40;96479.97;5010682;28;20602;-66
2022/08/09 07:59:54;;;;;;;;;;;;;;;23.53;24.33;96487.75;5018229;28;20286;-66
2022/08/09 08:02:22;;;;;;;;;;;;;;;23.81;23.73;96488.03;5007052;28;20097;-68
2022/08/09 08:04:47;;;;;;;;;;;;;;;23.90;23.70;96491.19;4994341;28;19950;-69
2022/08/09 08:07:12;;;;;;;;;;;;;;;24.03;23.62;96490.09;5010629;28;19975;-69
2022/08/09 08:09:37;;;;;;;;;;;;;;;23.77;23.46;96495.03;5008809;28;20033;-67
2022/08/09 08:12:03;;;;;;;;;;;;;;;24.03;23.59;96495.53;5016686;28;20007;-68
2022/08/09 08:14:28;;;;;;;;;;;;;;;24.22;23.82;96500.72;5005976;28;20164;-66
2022/08/09 08:16:53;;;;;;;;;;;;;;;23.98;24.32;96496.25;5006565;28;20347;-67
2022/08/09 08:19:19;;;;;;;;;;;;;;;24.24;23.64;96487.72;5004155;28;19981;-66
2022/08/09 08:21:44;;;;;;;;;;;;;;;24.24;23.16;96496.72;5015125;28;19984;-66
2022/08/09 08:24:09;;;;;;;;;;;;;;;24.53;22.98;96493.94;5008611;28;19993;-69
2022/08/09 08:26:34;;;;;;;;;;;;;;;24.71;22.54;96500.19;5011808;28;19985;-71
2022/08/09 08:29:00;;;;;;;;;;;;;;;24.74;22.05;96493.44;5007831;28;19968;-69
2022/08/09 08:31:25;;;;;;;;;;;;;;;24.92;22.49;96493.19;5007603;28;20514;-66
2022/08/09 08:33:50;;;;;;;;;;;;;;;25.08;22.90;96493.41;5007261;28;20044;-66
2022/08/09 08:36:15;;;;;;;;;;;;;;;25.48;23.00;96494.22;5006533;28;19965;-67
2022/08/09 08:38:41;;;;;;;;;;;;;;;25.36;22.17;96491.63;5008382;28;19989;-75
2022/08/09 08:41:06;;;;;;;;;;;;;;;25.51;21.77;96484.72;5007885;28;19969;-74
2022/08/09 08:43:31;;;;;;;;;;;;;;;25.72;21.36;96491.22;4987344;28;19997;-74
2022/08/09 08:45:59;;;;;;;;;;;;;;;25.65;20.76;96501.50;4987426;28;19973;-73
2022/08/09 08:48:25;;;;;;;;;;;;;;;25.99;20.72;96496.72;5015200;28;19960;-75
2022/08/09 08:50:50;;;;;;;;;;;;;;;25.98;20.32;96494.25;4987579;28;20427;-75
2022/08/09 08:53:16;;;;;;;;;;;;;;;26.38;20.34;96497.66;4989815;28;19952;-74
2022/08/09 08:55:42;;;;;;;;;;;;;;;26.33;21.03;96497.56;4997721;28;20439;-75
2022/08/09 08:58:08;;;;;;;;;;;;;;;26.13;20.81;96496.31;4996595;28;19971;-73
2022/08/09 09:00:33;;;;;;;;;;;;;;;26.62;20.26;96500.03;5011238;28;19974;-73
2022/08/09 09:02:59;;;;;;;;;;;;;;;26.95;19.94;96500.81;4974356;28;19971;-74
2022/08/09 09:05:24;;;;;;;;;;;;;;;26.64;20.75;96500.59;5004430;28;19947;-73
2022/08/09 09:07:49;;;;;;;;;;;;;;;26.90;19.96;96500.78;5005536;28;19960;-74
2022/08/09 09:10:14;;;;;;;;;;;;;;;26.95;20.17;96509.00;4986954;28;19974;-75
2022/08/09 09:12:40;;;;;;;;;;;;;;;27.04;19.83;96508.50;4988466;28;19975;-75
2022/08/09 09:15:05;;;;;;;;;;;;;;;27.53;19.13;96504.69;4991271;28;20491;-73
2022/08/09 09:17:31;;;;;;;;;;;;;;;27.46;17.99;96510.41;5010247;28;19986;-74
2022/08/09 09:19:56;;;;;;;;;;;;;;;27.31;19.52;96513.88;5006831;28;20330;-73
2022/08/09 09:22:21;;;;;;;;;;;;;;;27.40;18.66;96516.94;5007562;28;19966;-74
2022/08/09 09:24:47;;;;;;;;;;;;;;;28.10;17.81;96515.81;5008215;28;20651;-76
2022/08/09 09:27:13;;;;;;;;;;;;;;;27.84;18.53;96515.75;5007017;28;20504;-74
2022/08/09 09:29:39;;;;;;;;;;;;;;;27.94;18.46;96508.69;4991377;28;19969;-74
2022/08/09 09:32:05;;;;;;;;;;;;;;;28.18;18.22;96522.72;4990715;28;19943;-75
2022/08/09 09:34:30;;;;;;;;;;;;;;;28.16;17.71;96511.22;4974695;28;19959;-74
2022/08/09 09:36:55;;;;;;;;;;;;;;;28.44;17.76;96513.72;5006982;28;20515;-76
2022/08/09 09:39:21;;;;;;;;;;;;;;;28.54;17.95;96511.78;5012024;28;19959;-75
2022/08/09 09:41:47;;;;;;;;;;;;;;;27.83;17.03;96516.03;4987102;28;19958;-75
2022/08/09 09:44:13;;;;;;;;;;;;;;;28.16;17.41;96505.75;5005305;28;19976;-75
2022/08/09 09:46:38;;;;;;;;;;;;;;;27.90;18.68;96500.19;4988057;28;20421;-75
2022/08/09 09:49:04;;;;;;;;;;;;;;;27.84;18.13;96510.28;5005303;28;19942;-75
2022/08/09 09:51:30;;;;;;;;;;;;;;;27.72;18.14;96505.06;4990521;28;19977;-76
2022/08/09 09:54:21;;;;;;;;;;;;;;;28.08;18.20;96506.25;4987730;28;19950;-75
2022/08/09 09:56:46;;;;;;;;;;;;;;;28.78;17.32;96514.00;5006127;28;20406;-74
2022/08/09 09:59:12;;;;;;;;;;;;;;;28.65;18.01;96525.50;4988857;28;19982;-75
2022/08/09 10:01:38;;;;;;;;;;;;;;;29.08;16.74;96525.19;4991472;28;20003;-74
2022/08/09 10:04:05;;;;;;;;;;;;;;;28.93;17.56;96534.25;4989574;28;19956;-73
2022/08/09 10:06:40;;;;;;;;;;;;;;;29.17;16.37;96526.28;4992543;28;20370;-73
2022/08/09 10:09:07;;;;;;;;;;;;;;;29.51;16.06;96530.31;5012675;28;20383;-74
2022/08/09 10:11:32;;;;;;;;;;;;;;;29.70;15.79;96524.22;5012148;28;19967;-75
2022/08/09 10:13:58;;;;;;;;;;;;;;;29.40;17.10;96523.22;5011000;28;20017;-72
2022/08/09 10:16:27;;;;;;;;;;;;;;;30.08;15.16;96529.25;5010894;28;19948;-73
2022/08/09 10:18:52;;;;;;;;;;;;;;;29.94;14.44;96518.88;4994283;28;20049;-75
2022/08/09 10:21:18;;;;;;;;;;;;;;;29.92;14.57;96514.78;4995285;28;20035;-73
2022/08/09 10:23:43;;;;;;;;;;;;;;;28.64;16.21;96512.88;4998902;28;20315;-74
2022/08/09 10:26:08;;;;;;;;;;;;;;;29.59;15.70;96523.41;5010282;28;19952;-74
2022/08/09 10:28:34;;;;;;;;;;;;;;;29.82;14.28;96512.91;5013586;28;19959;-75
2022/08/09 10:30:59;;;;;;;;;;;;;;;29.66;15.27;96510.22;4986565;28;19959;-74
2022/08/09 10:33:24;;;;;;;;;;;;;;;30.27;14.39;96510.19;4994506;28;19920;-73
2022/08/09 10:35:50;;;;;;;;;;;;;;;30.57;14.63;96508.31;5000001;28;19918;-73
2022/08/09 10:38:16;;;;;;;;;;;;;;;30.90;13.91;96510.53;5013155;28;19975;-74
2022/08/09 10:40:43;;;;;;;;;;;;;;;30.01;14.85;96513.06;5012992;28;20036;-74
2022/08/09 10:43:08;;;;;;;;;;;;;;;30.19;15.03;96511.59;5006509;28;20448;-75
2022/08/09 10:45:33;;;;;;;;;;;;;;;30.36;15.97;96506.84;5006688;28;19922;-76
2022/08/09 10:48:03;;;;;;;;;;;;;;;30.00;13.44;96508.69;5007638;28;20420;-74
2022/08/09 10:51:05;;;;;;;;;;;;;;;30.79;12.04;96509.78;5006779;28;20437;-75
2022/08/09 10:53:39;;;;;;;;;;;;;;;31.07;13.02;96504.56;5007147;28;19924;-74
2022/08/09 10:56:15;;;;;;;;;;;;;;;31.20;14.22;96507.78;5007966;28;19960;-74
2022/08/09 10:58:40;;;;;;;;;;;;;;;31.00;13.16;96504.13;4989742;28;19918;-74
2022/08/09 11:01:05;;;;;;;;;;;;;;;31.14;13.76;96514.44;4999969;28;19982;-74
2022/08/09 11:03:31;;;;;;;;;;;;;;;31.31;13.19;96512.06;4989963;28;20219;-74
2022/08/09 11:06:14;;;;;;;;;;;;;;;31.63;13.65;96514.47;4987976;28;19921;-75
2022/08/09 11:08:41;;;;;;;;;;;;;;;31.36;13.39;96516.66;4990577;28;20016;-74
2022/08/09 11:11:06;;;;;;;;;;;;;;;31.24;14.19;96519.00;4992515;28;20448;-73
2022/08/09 11:13:31;;;;;;;;;;;;;;;31.61;12.35;96512.00;4997804;28;19918;-74
2022/08/09 11:16:15;;;;;;;;;;;;;;;32.19;12.09;96509.31;5012810;28;19921;-74
2022/08/09 11:18:41;;;;;;;;;;;;;;;31.95;12.43;96510.19;5008051;28;20012;-76
2022/08/09 11:21:06;;;;;;;;;;;;;;;32.26;12.35;96508.94;4994310;28;19941;-74
2022/08/09 11:23:48;;;;;;;;;;;;;;;31.66;14.23;96505.59;5015036;28;20877;-74
2022/08/09 11:26:33;;;;;;;;;;;;;;;31.60;14.32;96497.41;4992648;28;19966;-76
2022/08/09 11:28:59;;;;;;;;;;;;;;;32.03;11.85;96504.00;5013315;28;20408;-75
2022/08/09 11:31:40;;;;;;;;;;;;;;;32.59;11.34;96503.47;4993323;28;19961;-73
2022/08/09 11:34:08;;;;;;;;;;;;;;;32.01;13.90;96503.47;5004597;28;19917;-73
2022/08/09 11:36:38;;;;;;;;;;;;;;;32.50;11.43;96520.66;5007619;28;19963;-74
2022/08/09 11:39:03;;;;;;;;;;;;;;;33.01;10.57;96514.63;4999105;28;20325;-74
2022/08/09 11:41:28;;;;;;;;;;;;;;;33.08;11.50;96503.19;4990356;28;19921;-74
2022/08/09 11:43:54;;;;;;;;;;;;;;;33.04;12.03;96511.25;5016924;28;19933;-73
2022/08/09 11:46:20;;;;;;;;;;;;;;;33.34;13.27;96502.69;4994822;28;19921;-74
2022/08/09 11:48:45;;;;;;;;;;;;;;;33.74;11.75;96515.97;4995250;28;19913;-74
2022/08/09 11:51:11;;;;;;;;;;;;;;;33.92;12.38;96500.44;5010399;28;19932;-74
2022/08/09 11:53:37;;;;;;;;;;;;;;;33.38;13.59;96504.50;5007141;28;19925;-73
2022/08/09 11:56:14;;;;;;;;;;;;;;;33.90;11.38;96509.03;4997595;28;19968;-74
2022/08/09 11:58:44;;;;;;;;;;;;;;;33.76;12.78;96508.19;4988641;28;19925;-73
2022/08/09 12:01:09;;;;;;;;;;;;;;;33.51;11.46;96502.09;4989455;28;19921;-74
2022/08/09 12:03:35;;;;;;;;;;;;;;;33.59;12.38;96509.66;5007204;28;19971;-75
2022/08/09 12:06:01;;;;;;;;;;;;;;;33.39;11.42;96506.16;4989882;28;20326;-75
2022/08/09 12:08:27;;;;;;;;;;;;;;;32.20;12.23;96499.94;4989826;28;20375;-76
2022/08/09 12:10:53;;;;;;;;;;;;;;;31.68;13.25;96506.13;4996796;28;19929;-76
2022/08/09 12:13:28;;;;;;;;;;;;;;;30.18;14.25;96500.94;4997403;28;19928;-74
2022/08/09 12:16:00;;;;;;;;;;;;;;;32.11;13.11;96497.03;5014522;28;19971;-75
2022/08/09 12:18:26;;;;;;;;;;;;;;;32.81;13.35;96494.56;4990042;28;19960;-75
2022/08/09 12:20:51;;;;;;;;;;;;;;;33.06;11.52;96494.41;4994102;28;19996;-75
2022/08/09 12:23:16;;;;;;;;;;;;;;;33.39;11.88;96494.31;4984152;28;20157;-75
2022/08/09 12:25:45;;;;;;;;;;;;;;;33.48;10.52;96486.97;4993100;28;20197;-75
2022/08/09 12:28:10;;;;;;;;;;;;;;;33.79;12.78;96493.78;4993898;28;19917;-75
2022/08/09 12:30:36;;;;;;;;;;;;;;;34.15;11.78;96475.59;5012116;28;19979;-75
2022/08/09 12:33:01;;;;;;;;;;;;;;;34.27;11.50;96481.41;5008843;28;19944;-75
2022/08/09 12:35:26;;;;;;;;;;;;;;;34.80;10.99;96469.91;5011770;28;19931;-75
2022/08/09 12:37:52;;;;;;;;;;;;;;;35.55;10.07;96476.72;5012911;28;20421;-75
2022/08/09 12:40:17;;;;;;;;;;;;;;;35.30;11.13;96474.38;4989949;28;19913;-75
2022/08/09 12:42:42;;;;;;;;;;;;;;;35.10;10.95;96470.19;4987039;28;19925;-75
2022/08/09 12:45:08;;;;;;;;;;;;;;;35.24;11.70;96474.84;4990167;28;19956;-75